Time;durP1;ratioP1;P1;durP2;ratioP2;P2;SDS_P1;SDS_P2;PMS_P1;PMS_P2;Temp;Humidity;BMP_temperature;BMP_pressure;BME280_temperature;BME280_humidity;BME280_pressure;Samples;Min_cycle;Max_cycle;Signal;HPM_P1;HPM_P2
2023/02/17 00:01:31;;;;;;;;;27.00;26.00;;;;;14.14;100.00;102153.47;5124087;27;45421;-76
2023/02/17 00:04:00;;;;;;;;;30.33;26.33;;;;;14.09;100.00;102145.09;5124334;27;45352;-76
2023/02/17 00:06:32;;;;;;;;;28.67;26.67;;;;;14.10;100.00;102151.28;5124018;27;45636;-76
2023/02/17 00:08:59;;;;;;;;;25.33;24.33;;;;;14.10;100.00;102144.06;5121174;27;45830;-76
2023/02/17 00:11:30;;;;;;;;;28.33;26.00;;;;;14.14;100.00;102152.63;5141470;27;45396;-76
2023/02/17 00:13:59;;;;;;;;;28.33;27.33;;;;;14.05;100.00;102135.72;5123879;27;45287;-76
2023/02/17 00:16:30;;;;;;;;;25.00;24.67;;;;;14.13;100.00;102141.06;5123984;27;45514;-76
2023/02/17 00:19:00;;;;;;;;;29.67;26.00;;;;;14.11;100.00;102131.56;5142371;27;45636;-76
2023/02/17 00:21:29;;;;;;;;;28.33;26.00;;;;;14.11;100.00;102142.25;5123605;27;45404;-76
2023/02/17 00:23:57;;;;;;;;;25.00;22.00;;;;;13.94;100.00;102136.00;5123296;27;45384;-75
2023/02/17 00:26:22;;;;;;;;;27.33;25.67;;;;;14.15;100.00;102140.91;5141036;27;45476;-76
2023/02/17 00:28:49;;;;;;;;;20.33;19.33;;;;;14.11;100.00;102137.75;5123585;27;45599;-75
2023/02/17 00:31:24;;;;;;;;;21.00;20.00;;;;;14.10;100.00;102133.38;5123792;27;45429;-76
2023/02/17 00:33:54;;;;;;;;;24.33;23.33;;;;;14.17;100.00;102143.44;5123590;27;45309;-76
2023/02/17 00:36:20;;;;;;;;;27.00;24.00;;;;;14.10;100.00;102136.06;5110713;27;45442;-76
2023/02/17 00:38:47;;;;;;;;;22.67;21.67;;;;;14.06;100.00;102124.03;5139753;27;45814;-76
2023/02/17 00:41:12;;;;;;;;;25.00;22.33;;;;;14.20;100.00;102138.59;5123176;27;45463;-76
2023/02/17 00:43:38;;;;;;;;;21.33;20.00;;;;;14.21;100.00;102136.75;5140361;27;45387;-76
2023/02/17 00:46:04;;;;;;;;;25.33;22.00;;;;;14.56;100.00;102125.91;5136736;27;45763;-76
2023/02/17 00:48:30;;;;;;;;;22.67;22.00;;;;;14.65;100.00;102132.94;5121677;27;46122;-75
2023/02/17 00:50:56;;;;;;;;;21.00;21.00;;;;;14.22;100.00;102122.41;5137223;27;45363;-76
2023/02/17 00:53:28;;;;;;;;;23.00;19.67;;;;;14.22;100.00;102139.25;5137160;27;45342;-76
2023/02/17 00:55:53;;;;;;;;;27.00;24.33;;;;;14.14;100.00;102140.09;5123388;27;45366;-76
2023/02/17 00:58:19;;;;;;;;;20.00;18.67;;;;;14.22;100.00;102130.41;5140054;27;46209;-75
2023/02/17 01:00:45;;;;;;;;;24.33;21.33;;;;;14.23;100.00;102122.22;5123249;27;45379;-75
2023/02/17 01:03:13;;;;;;;;;17.67;17.33;;;;;14.26;100.00;102126.41;5123236;27;45406;-75
2023/02/17 01:05:47;;;;;;;;;22.00;20.67;;;;;14.23;100.00;102124.91;5123321;27;46423;-75
2023/02/17 01:08:13;;;;;;;;;22.67;22.67;;;;;14.59;100.00;102144.31;5106855;27;45834;-76
2023/02/17 01:10:40;;;;;;;;;22.33;21.67;;;;;14.37;100.00;102125.25;5121683;27;45328;-75
2023/02/17 01:13:07;;;;;;;;;20.67;19.33;;;;;14.32;100.00;102133.78;5120481;27;45378;-75
2023/02/17 01:15:41;;;;;;;;;21.33;20.67;;;;;14.34;100.00;102133.59;5103071;27;45610;-76
2023/02/17 01:18:07;;;;;;;;;19.33;19.33;;;;;14.29;100.00;102119.88;5120054;27;45729;-76
2023/02/17 01:20:40;;;;;;;;;22.67;19.67;;;;;14.25;100.00;102114.84;5102845;27;45254;-76
2023/02/17 01:23:07;;;;;;;;;21.50;20.50;;;;;14.31;100.00;102123.25;5102907;27;45329;-76
2023/02/17 01:25:40;;;;;;;;;23.33;20.00;;;;;14.32;100.00;102130.25;5119877;27;45530;-75
2023/02/17 01:28:07;;;;;;;;;20.33;19.00;;;;;14.23;100.00;102124.91;5102312;27;45776;-75
2023/02/17 01:30:35;;;;;;;;;21.33;20.00;;;;;14.24;100.00;102123.88;5119551;27;45444;-76
2023/02/17 01:33:06;;;;;;;;;20.00;17.67;;;;;14.12;100.00;102127.88;5102692;27;45314;-76
2023/02/17 01:35:33;;;;;;;;;23.00;23.00;;;;;14.03;100.00;102116.31;5115933;27;45504;-76
2023/02/17 01:38:01;;;;;;;;;19.67;19.33;;;;;14.03;100.00;102116.31;5122656;27;45527;-76
2023/02/17 01:40:36;;;;;;;;;24.00;22.00;;;;;14.00;100.00;102119.31;5109304;27;45345;-75
2023/02/17 01:43:03;;;;;;;;;19.67;17.67;;;;;14.00;100.00;102106.81;5139845;27;45400;-75
2023/02/17 01:45:40;;;;;;;;;19.00;18.67;;;;;14.04;100.00;102123.38;5122779;27;45487;-75
2023/02/17 01:48:22;;;;;;;;;21.33;20.67;;;;;14.05;100.00;102118.84;5122682;27;46179;-75
2023/02/17 01:51:14;;;;;;;;;17.67;16.00;;;;;14.04;100.00;102117.16;5141280;27;45347;-75
2023/02/17 01:53:42;;;;;;;;;22.33;22.00;;;;;14.23;100.00;102108.00;5108298;27;45353;-76
2023/02/17 01:56:10;;;;;;;;;22.67;22.33;;;;;14.06;100.00;102116.00;5102206;27;45451;-76
2023/02/17 01:58:39;;;;;;;;;21.33;19.33;;;;;14.03;100.00;102107.50;5131158;27;45311;-75
2023/02/17 02:01:05;;;;;;;;;23.67;23.00;;;;;14.50;100.00;102109.53;5141061;27;45301;-76
2023/02/17 02:03:35;;;;;;;;;26.33;25.00;;;;;14.54;100.00;102107.34;5141274;27;45474;-75
2023/02/17 02:06:08;;;;;;;;;25.00;20.00;;;;;14.64;100.00;102104.53;5122181;27;45375;-75
2023/02/17 02:08:39;;;;;;;;;23.33;23.33;;;;;14.73;100.00;102100.81;5115715;27;45686;-75
2023/02/17 02:11:07;;;;;;;;;24.33;22.33;;;;;14.61;100.00;102108.34;5118800;27;45379;-75
2023/02/17 02:13:33;;;;;;;;;22.00;21.00;;;;;14.20;100.00;102122.56;5126271;27;45349;-76
2023/02/17 02:16:10;;;;;;;;;19.00;18.00;;;;;14.63;100.00;102116.22;5122340;27;46512;-75
2023/02/17 02:18:51;;;;;;;;;20.67;20.33;;;;;14.67;100.00;102106.03;5121664;27;48085;-75
2023/02/17 02:22:01;;;;;;;;;25.00;23.00;;;;;14.20;100.00;102103.00;5118493;27;45294;-76
2023/02/17 02:24:36;;;;;;;;;22.67;21.33;;;;;14.08;100.00;102091.78;5102594;27;45328;-75
2023/02/17 02:27:26;;;;;;;;;25.33;22.67;;;;;14.05;100.00;102098.31;5121920;27;45317;-75
2023/02/17 02:30:16;;;;;;;;;22.33;19.33;;;;;14.05;100.00;102094.78;5109652;27;45535;-76
2023/02/17 02:32:58;;;;;;;;;20.00;20.00;;;;;14.04;100.00;102103.81;5118479;27;45261;-76
2023/02/17 02:36:09;;;;;;;;;23.00;19.67;;;;;13.98;100.00;102111.47;5115165;27;45409;-75
2023/02/17 02:38:38;;;;;;;;;23.00;20.67;;;;;13.93;100.00;102102.28;5046064;28;47214;-76
2023/02/17 02:41:15;;;;;;;;;23.00;23.00;;;;;13.92;100.00;102104.09;5039352;28;47343;-75
2023/02/17 02:43:44;;;;;;;;;24.33;22.00;;;;;13.89;100.00;102099.09;5077852;27;45192;-76
2023/02/17 02:46:12;;;;;;;;;20.00;20.00;;;;;13.92;100.00;102100.59;5122240;27;45514;-75
2023/02/17 02:48:39;;;;;;;;;20.00;20.00;;;;;13.98;100.00;102099.97;5119534;27;45499;-76
2023/02/17 02:51:15;;;;;;;;;22.33;21.33;;;;;13.99;100.00;102093.59;5121776;27;45524;-76
2023/02/17 02:53:49;;;;;;;;;22.00;21.67;;;;;13.94;100.00;102090.56;5121777;27;45228;-76
2023/02/17 02:56:49;;;;;;;;;24.33;22.00;;;;;13.97;100.00;102095.59;5122031;27;45443;-75
2023/02/17 02:59:36;;;;;;;;;24.67;23.00;;;;;13.96;100.00;102100.13;5106369;27;46867;-75
2023/02/17 03:02:38;;;;;;;;;26.33;23.00;;;;;13.92;100.00;102090.72;5119773;27;45693;-75
2023/02/17 03:05:31;;;;;;;;;23.00;22.00;;;;;13.92;100.00;102090.72;5139173;27;45455;-76
2023/02/17 03:08:27;;;;;;;;;23.67;23.00;;;;;13.85;100.00;102085.22;5121846;27;45425;-75
2023/02/17 03:11:03;;;;;;;;;23.00;23.00;;;;;13.88;100.00;102095.59;5112425;27;45368;-75
2023/02/17 03:13:32;;;;;;;;;24.00;21.67;;;;;13.83;100.00;102083.72;5106942;27;48115;-76
2023/02/17 03:15:58;;;;;;;;;24.00;22.67;;;;;13.82;100.00;102079.34;5136586;27;45337;-75
2023/02/17 03:18:23;;;;;;;;;22.67;21.33;;;;;13.79;100.00;102079.69;5124963;27;45331;-76
2023/02/17 03:20:56;;;;;;;;;24.00;23.33;;;;;13.82;100.00;102090.03;5138769;27;45351;-75
2023/02/17 03:23:22;;;;;;;;;27.67;24.33;;;;;13.83;100.00;102091.75;5130228;27;45697;-75
2023/02/17 03:25:48;;;;;;;;;19.00;18.00;;;;;13.82;100.00;102082.88;5124729;27;45393;-75
2023/02/17 03:28:17;;;;;;;;;23.67;22.67;;;;;14.40;100.00;102090.16;5142338;27;45369;-75
2023/02/17 03:30:48;;;;;;;;;30.00;27.33;;;;;13.90;100.00;102084.72;5143348;27;45383;-75
2023/02/17 03:33:17;;;;;;;;;29.33;25.00;;;;;14.42;100.00;102087.31;5124640;27;46481;-75
2023/02/17 03:35:48;;;;;;;;;25.00;25.00;;;;;14.05;100.00;102092.94;5143594;27;45276;-75
2023/02/17 03:38:16;;;;;;;;;26.33;25.33;;;;;13.91;100.00;102088.25;5143845;27;45304;-75
2023/02/17 03:40:42;;;;;;;;;25.67;24.33;;;;;13.95;100.00;102098.44;5120970;27;45511;-75
2023/02/17 03:43:07;;;;;;;;;22.67;22.00;;;;;13.82;100.00;102082.88;5113837;27;45622;-75
2023/02/17 03:45:36;;;;;;;;;28.33;24.67;;;;;14.12;100.00;102080.59;5141101;27;45624;-76
2023/02/17 03:48:02;;;;;;;;;25.67;24.67;;;;;13.87;100.00;102085.06;5124897;27;45409;-75
2023/02/17 03:50:27;;;;;;;;;26.00;21.67;;;;;13.76;100.00;102073.69;5140701;27;45538;-75
2023/02/17 03:52:55;;;;;;;;;26.67;23.00;;;;;13.85;100.00;102087.03;5143337;27;46097;-75
2023/02/17 03:55:21;;;;;;;;;21.67;20.33;;;;;13.87;100.00;102090.41;5141092;27;45192;-76
2023/02/17 03:57:47;;;;;;;;;32.00;28.33;;;;;13.80;100.00;102094.72;5124085;27;45322;-75
2023/02/17 04:00:18;;;;;;;;;23.00;22.00;;;;;13.83;100.00;102102.44;5141193;27;45460;-75
2023/02/17 04:02:44;;;;;;;;;24.67;23.00;;;;;13.80;100.00;102102.75;5120800;27;45518;-75
2023/02/17 04:05:12;;;;;;;;;23.33;21.00;;;;;13.79;100.00;102099.22;5120923;27;45323;-76
2023/02/17 04:07:41;;;;;;;;;29.33;26.00;;;;;13.87;100.00;102119.81;5124340;27;45455;-76
2023/02/17 04:10:07;;;;;;;;;25.33;23.33;;;;;13.80;100.00;102108.09;5139908;27;46203;-76
2023/02/17 04:12:33;;;;;;;;;21.67;19.67;;;;;13.80;100.00;102113.44;5120486;27;45655;-75
2023/02/17 04:14:58;;;;;;;;;23.33;22.33;;;;;13.87;100.00;102117.13;5121331;27;45355;-75
2023/02/17 04:17:24;;;;;;;;;21.67;21.33;;;;;13.88;100.00;102116.97;5140687;27;45362;-75
2023/02/17 04:19:58;;;;;;;;;22.33;22.33;;;;;13.80;100.00;102113.44;5142680;27;45260;-75
2023/02/17 04:22:23;;;;;;;;;26.00;23.00;;;;;13.83;100.00;102115.78;5124040;27;45522;-76
2023/02/17 04:24:49;;;;;;;;;29.00;26.33;;;;;13.85;100.00;102119.13;5137519;27;45330;-75
2023/02/17 04:27:15;;;;;;;;;24.00;20.33;;;;;13.85;100.00;102129.81;5115304;27;45290;-74
2023/02/17 04:29:40;;;;;;;;;23.00;23.00;;;;;13.81;100.00;102120.44;5123588;27;45415;-75
2023/02/17 04:32:06;;;;;;;;;23.33;23.33;;;;;13.87;100.00;102136.69;5123845;27;46329;-75
2023/02/17 04:34:31;;;;;;;;;27.00;24.00;;;;;13.87;100.00;102131.34;5142526;27;45209;-75
2023/02/17 04:36:56;;;;;;;;;27.00;25.67;;;;;13.91;100.00;102141.69;5124168;27;45261;-76
2023/02/17 04:39:22;;;;;;;;;25.33;24.00;;;;;13.86;100.00;102139.50;5142300;27;45218;-76
2023/02/17 04:41:47;;;;;;;;;24.00;22.33;;;;;13.84;100.00;102133.47;5142183;27;46101;-75
2023/02/17 04:44:13;;;;;;;;;25.00;23.67;;;;;13.83;100.00;102126.47;5142308;27;45561;-75
2023/02/17 04:46:38;;;;;;;;;26.33;23.67;;;;;13.83;100.00;102129.97;5137729;27;45311;-75
2023/02/17 04:49:04;;;;;;;;;26.33;22.33;;;;;13.83;100.00;102124.63;5120909;27;45520;-75
2023/02/17 04:51:30;;;;;;;;;26.67;26.00;;;;;14.06;100.00;102136.53;5137456;27;45674;-75
2023/02/17 04:53:58;;;;;;;;;28.67;26.33;;;;;14.10;100.00;102135.25;5121517;27;45891;-76
2023/02/17 04:56:34;;;;;;;;;25.00;24.00;;;;;14.11;100.00;102135.06;5120396;27;45378;-75
2023/02/17 04:59:00;;;;;;;;;23.67;22.33;;;;;14.05;100.00;102134.88;5122522;27;45590;-75
2023/02/17 05:01:28;;;;;;;;;25.67;23.67;;;;;14.05;100.00;102135.72;5137172;27;47288;-76
2023/02/17 05:03:57;;;;;;;;;25.33;24.33;;;;;14.05;100.00;102141.06;5123514;27;45348;-75
2023/02/17 05:06:22;;;;;;;;;25.00;24.33;;;;;14.01;100.00;102137.06;5123142;27;45545;-75
2023/02/17 05:08:52;;;;;;;;;25.33;23.00;;;;;14.02;100.00;102136.03;5109811;27;45655;-75
2023/02/17 05:11:18;;;;;;;;;26.33;23.33;;;;;13.91;100.00;102139.84;5123172;27;47424;-76
2023/02/17 05:13:44;;;;;;;;;21.33;20.67;;;;;13.87;100.00;102133.16;5123056;27;45377;-75
2023/02/17 05:16:12;;;;;;;;;23.00;23.00;;;;;13.91;100.00;102139.84;5140548;27;45353;-75
2023/02/17 05:18:41;;;;;;;;;24.33;23.67;;;;;13.94;100.00;102147.53;5123160;27;45421;-75
2023/02/17 05:21:06;;;;;;;;;22.33;20.67;;;;;13.97;100.00;102152.56;5122769;27;46047;-75
2023/02/17 05:23:32;;;;;;;;;20.33;19.67;;;;;13.94;100.00;102150.22;5119137;27;46537;-75
2023/02/17 05:26:01;;;;;;;;;22.67;22.00;;;;;14.10;100.00;102153.94;5105997;27;45408;-75
2023/02/17 05:28:27;;;;;;;;;20.67;18.67;;;;;13.94;100.00;102138.69;5119307;27;45459;-76
2023/02/17 05:30:55;;;;;;;;;24.33;24.00;;;;;13.95;100.00;102149.22;5118926;27;45465;-75
2023/02/17 05:33:29;;;;;;;;;21.33;19.00;;;;;13.91;100.00;102145.19;5119441;27;45178;-75
2023/02/17 05:35:55;;;;;;;;;22.67;22.00;;;;;13.94;100.00;102149.38;5119493;27;45367;-75
2023/02/17 05:38:21;;;;;;;;;18.67;18.00;;;;;13.93;100.00;102159.25;5119542;27;45480;-75
2023/02/17 05:40:57;;;;;;;;;18.67;18.67;;;;;13.89;100.00;102139.19;5120007;27;46709;-74
2023/02/17 05:43:26;;;;;;;;;21.33;20.33;;;;;13.94;100.00;102144.88;5119079;27;45408;-74
2023/02/17 05:45:52;;;;;;;;;21.67;20.67;;;;;13.91;100.00;102149.72;5119461;27;45436;-75
2023/02/17 05:48:23;;;;;;;;;17.00;16.67;;;;;13.91;100.00;102153.22;5119312;27;45425;-75
2023/02/17 05:50:49;;;;;;;;;21.67;21.33;;;;;14.12;100.00;102152.78;5118637;27;47102;-75
2023/02/17 05:53:14;;;;;;;;;22.67;22.67;;;;;13.95;100.00;102143.88;5119223;27;45561;-74
2023/02/17 05:55:40;;;;;;;;;20.00;17.00;;;;;13.95;100.00;102149.22;5120524;27;45370;-75
2023/02/17 05:58:06;;;;;;;;;22.33;20.67;;;;;13.95;100.00;102156.41;5119003;27;45457;-75
2023/02/17 06:00:34;;;;;;;;;12.67;11.67;;;;;13.98;100.00;102142.72;5118782;27;45409;-75
2023/02/17 06:02:59;;;;;;;;;18.67;17.33;;;;;13.96;100.00;102158.06;5118538;27;45399;-75
2023/02/17 06:05:25;;;;;;;;;19.67;18.33;;;;;13.97;100.00;102157.91;5119113;27;45284;-75
2023/02/17 06:07:53;;;;;;;;;21.67;19.00;;;;;14.00;100.00;102160.25;5120232;27;45488;-74
2023/02/17 06:10:22;;;;;;;;;20.50;19.50;;;;;13.96;100.00;102158.06;5118887;27;46013;-74
2023/02/17 06:12:47;;;;;;;;;16.33;16.33;;;;;14.00;100.00;102172.78;5118438;27;45382;-75
2023/02/17 06:15:12;;;;;;;;;19.67;19.00;;;;;14.01;100.00;102164.59;5120563;27;45228;-74
2023/02/17 06:17:38;;;;;;;;;16.67;16.00;;;;;13.88;100.00;102148.19;5120361;27;45447;-75
2023/02/17 06:20:04;;;;;;;;;21.00;19.00;;;;;13.97;100.00;102167.75;5120231;27;45144;-75
2023/02/17 06:22:30;;;;;;;;;20.67;18.00;;;;;13.99;100.00;102174.63;5118861;27;45254;-73
2023/02/17 06:24:55;;;;;;;;;15.00;15.00;;;;;13.94;100.00;102171.59;5136408;27;45225;-76
2023/02/17 06:27:20;;;;;;;;;17.00;17.00;;;;;13.98;100.00;102172.13;5139487;27;46263;-75
2023/02/17 06:29:50;;;;;;;;;19.00;19.00;;;;;14.00;100.00;102187.00;5140942;27;46000;-75
2023/02/17 06:32:18;;;;;;;;;21.33;19.00;;;;;13.98;100.00;102193.50;5121969;27;46471;-75
2023/02/17 06:34:44;;;;;;;;;20.33;20.33;;;;;13.96;100.00;102179.47;5122257;27;45284;-75
2023/02/17 06:37:09;;;;;;;;;19.67;19.00;;;;;14.06;100.00;102184.66;5139336;27;46040;-75
2023/02/17 06:39:37;;;;;;;;;20.67;19.67;;;;;14.14;100.00;102198.06;5119117;27;45975;-74
2023/02/17 06:42:06;;;;;;;;;22.67;22.33;;;;;14.06;100.00;102198.88;5119571;27;45372;-74
2023/02/17 06:44:36;;;;;;;;;19.50;19.50;;;;;14.46;100.00;102201.00;5125790;27;45491;-74
2023/02/17 06:47:07;;;;;;;;;22.67;22.00;;;;;14.51;100.00;102198.63;5125300;27;45532;-74
2023/02/17 06:49:41;;;;;;;;;19.33;18.67;;;;;14.42;100.00;102205.81;5116964;27;46343;-74
2023/02/17 06:52:07;;;;;;;;;24.33;20.33;;;;;14.16;100.00;102212.13;5135506;27;45435;-74
2023/02/17 06:54:33;;;;;;;;;22.33;20.33;;;;;14.10;100.00;102213.59;5132392;27;45332;-74
2023/02/17 06:56:58;;;;;;;;;24.00;22.67;;;;;14.12;100.00;102211.59;5124089;27;45349;-74
2023/02/17 06:59:24;;;;;;;;;24.33;23.00;;;;;14.19;100.00;102227.81;5125136;27;47295;-74
2023/02/17 07:01:49;;;;;;;;;22.33;22.33;;;;;14.12;100.00;102218.78;5144002;27;45222;-75
2023/02/17 07:04:15;;;;;;;;;23.00;21.67;;;;;14.16;100.00;102225.50;5144454;27;45223;-75
2023/02/17 07:06:41;;;;;;;;;23.00;20.67;;;;;14.16;100.00;102233.50;5125253;27;46118;-75
2023/02/17 07:09:06;;;;;;;;;22.33;19.33;;;;;14.15;100.00;102242.50;5144035;27;45210;-75
2023/02/17 07:11:32;;;;;;;;;23.67;23.00;;;;;14.45;100.00;102248.28;5143508;27;45221;-74
2023/02/17 07:13:58;;;;;;;;;24.00;20.00;;;;;14.21;100.00;102247.22;5144084;27;45458;-75
2023/02/17 07:16:24;;;;;;;;;24.67;22.00;;;;;14.19;100.00;102251.06;5143778;27;45384;-75
2023/02/17 07:18:51;;;;;;;;;23.33;23.00;;;;;14.18;100.00;102254.72;5124951;27;47282;-75
2023/02/17 07:21:16;;;;;;;;;24.00;24.00;;;;;14.18;100.00;102258.22;5143586;27;45329;-75
2023/02/17 07:23:41;;;;;;;;;21.00;19.67;;;;;14.20;100.00;102264.28;5133690;27;45374;-76
2023/02/17 07:26:09;;;;;;;;;24.00;23.67;;;;;14.27;100.00;102262.63;5119018;27;45565;-75
2023/02/17 07:28:35;;;;;;;;;25.00;23.00;;;;;14.31;100.00;102252.41;5143472;27;46275;-75
2023/02/17 07:31:09;;;;;;;;;22.67;22.33;;;;;14.33;100.00;102260.28;5143555;27;45483;-76
2023/02/17 07:33:35;;;;;;;;;23.00;22.67;;;;;14.30;100.00;102257.97;5143604;27;45188;-75
2023/02/17 07:36:08;;;;;;;;;23.67;23.33;;;;;14.33;100.00;102257.59;5143333;27;45556;-75
2023/02/17 07:38:35;;;;;;;;;25.00;24.67;;;;;14.31;100.00;102259.63;5143459;27;46226;-75
2023/02/17 07:41:09;;;;;;;;;27.67;27.33;;;;;14.58;100.00;102268.41;5124718;27;45526;-76
2023/02/17 07:43:35;;;;;;;;;27.67;26.67;;;;;14.33;100.00;102257.59;5143304;27;45243;-75
2023/02/17 07:46:00;;;;;;;;;24.00;23.00;;;;;14.29;100.00;102261.59;5143415;27;45308;-75
2023/02/17 07:48:26;;;;;;;;;25.67;25.67;;;;;14.32;100.00;102267.47;5143369;27;46034;-76
2023/02/17 07:50:51;;;;;;;;;29.67;26.33;;;;;14.33;100.00;102266.47;5142603;27;45270;-75
2023/02/17 07:53:16;;;;;;;;;28.00;25.67;;;;;14.37;100.00;102272.34;5142905;27;45145;-75
2023/02/17 07:55:42;;;;;;;;;28.00;28.00;;;;;14.39;100.00;102278.34;5136357;27;47404;-75
2023/02/17 07:58:07;;;;;;;;;30.33;28.67;;;;;14.39;100.00;102281.03;5142943;27;45261;-76
2023/02/17 08:00:32;;;;;;;;;31.67;27.67;;;;;14.33;100.00;102270.97;5121004;27;45721;-75
2023/02/17 08:02:58;;;;;;;;;29.67;27.33;;;;;14.39;100.00;102284.56;5122494;27;45377;-76
2023/02/17 08:05:23;;;;;;;;;23.67;21.67;;;;;14.38;100.00;102282.88;5142827;27;45585;-74
2023/02/17 08:13:17;;;;;;;;;26.00;22.00;;;;;14.29;100.00;102266.97;5143028;27;46413;-75
2023/02/17 08:13:21;;;;;;;;;22.33;21.00;;;;;14.90;100.00;102274.81;5142582;27;45340;-74
2023/02/17 08:15:46;;;;;;;;;25.00;25.00;;;;;14.96;100.00;102279.53;5143030;27;45317;-76
2023/02/17 08:18:12;;;;;;;;;23.00;22.00;;;;;15.02;100.00;102275.34;5140970;27;47962;-76
2023/02/17 08:20:37;;;;;;;;;23.00;22.67;;;;;15.11;100.00;102273.50;5142562;27;45360;-75
2023/02/17 08:23:03;;;;;;;;;24.67;22.67;;;;;15.04;100.00;102278.69;5125564;27;45464;-75
2023/02/17 08:25:32;;;;;;;;;21.33;21.00;;;;;15.17;100.00;102288.91;5142640;27;45352;-75
2023/02/17 08:27:57;;;;;;;;;22.00;21.00;;;;;15.17;100.00;102291.56;5142345;27;45261;-75
2023/02/17 08:30:22;;;;;;;;;27.67;26.67;;;;;14.67;100.00;102287.97;5142553;27;45455;-75
2023/02/17 08:32:48;;;;;;;;;24.67;22.00;;;;;14.96;100.00;102292.91;5141056;27;46039;-75
2023/02/17 08:35:14;;;;;;;;;16.33;16.00;;;;;15.00;100.00;102288.88;5142775;27;45386;-76
2023/02/17 08:37:39;;;;;;;;;24.33;22.33;;;;;14.68;100.00;102298.53;5142253;27;45588;-75
2023/02/17 08:40:05;;;;;;;;;24.67;24.67;;;;;14.64;100.00;102295.31;5123466;27;45521;-75
2023/02/17 08:42:31;;;;;;;;;20.00;20.00;;;;;14.66;100.00;102297.00;5142334;27;45352;-75
2023/02/17 08:44:57;;;;;;;;;27.67;24.67;;;;;14.67;100.00;102304.03;5142354;27;45410;-76
2023/02/17 08:47:22;;;;;;;;;28.67;28.00;;;;;14.63;100.00;102288.31;5123422;27;47630;-75
2023/02/17 08:49:48;;;;;;;;;28.00;25.67;;;;;14.70;100.00;102295.69;5142560;27;45249;-75
2023/02/17 08:52:13;;;;;;;;;21.00;21.00;;;;;15.01;100.00;102295.94;5142398;27;45543;-75
2023/02/17 08:54:38;;;;;;;;;25.33;24.00;;;;;15.12;100.00;102296.63;5142332;27;45290;-75
2023/02/17 08:57:04;;;;;;;;;22.00;21.33;;;;;15.23;100.00;102280.19;5123248;27;47884;-76
2023/02/17 08:59:29;;;;;;;;;20.67;20.67;;;;;14.82;100.00;102285.53;5142162;27;45229;-75
2023/02/17 09:01:55;;;;;;;;;22.67;20.33;;;;;14.79;100.00;102288.53;5123515;27;45419;-75
2023/02/17 09:04:20;;;;;;;;;24.00;23.00;;;;;14.80;100.00;102277.66;5141832;27;45196;-76
2023/02/17 09:06:49;;;;;;;;;20.33;18.33;;;;;14.81;100.00;102282.00;5134930;27;48093;-75
2023/02/17 09:09:17;;;;;;;;;18.00;17.33;;;;;14.86;100.00;102290.41;5142224;27;45370;-75
2023/02/17 09:11:43;;;;;;;;;22.00;20.33;;;;;14.89;100.00;102286.53;5141615;27;45388;-75
2023/02/17 09:14:09;;;;;;;;;19.33;19.00;;;;;14.95;100.00;102291.25;5141874;27;45213;-75
2023/02/17 09:16:35;;;;;;;;;23.00;21.33;;;;;15.01;100.00;102289.72;5141600;27;45392;-75
2023/02/17 09:19:00;;;;;;;;;18.67;17.67;;;;;15.09;100.00;102292.41;5123167;27;46205;-75
2023/02/17 09:21:26;;;;;;;;;19.33;18.67;;;;;15.12;100.00;102297.44;5141787;27;45222;-75
2023/02/17 09:23:52;;;;;;;;;24.00;22.00;;;;;15.20;100.00;102291.25;5141722;27;45419;-75
2023/02/17 09:26:19;;;;;;;;;21.00;20.33;;;;;15.18;100.00;102297.78;5122771;27;48442;-75
2023/02/17 09:28:45;;;;;;;;;19.67;18.67;;;;;15.30;100.00;102299.13;5141706;27;45372;-75
2023/02/17 09:31:11;;;;;;;;;20.67;20.00;;;;;15.25;100.00;102307.66;5141750;27;45384;-75
2023/02/17 09:33:38;;;;;;;;;17.00;17.00;;;;;15.21;100.00;102308.16;5141546;27;45455;-75
2023/02/17 09:36:05;;;;;;;;;17.33;17.33;;;;;15.21;100.00;102300.97;5141442;27;45261;-75
2023/02/17 09:38:31;;;;;;;;;15.67;15.00;;;;;15.21;100.00;102298.28;5141508;27;45207;-75
2023/02/17 09:41:05;;;;;;;;;20.33;20.33;;;;;15.29;100.00;102307.34;5141351;27;45148;-75
2023/02/17 09:43:31;;;;;;;;;22.00;19.00;;;;;15.29;100.00;102302.78;5122605;27;45965;-75
2023/02/17 09:46:04;;;;;;;;;19.33;18.67;;;;;15.30;100.00;102303.63;5141251;27;45274;-75
2023/02/17 09:48:32;;;;;;;;;20.67;19.33;;;;;15.34;100.00;102304.97;5141202;27;45187;-76
2023/02/17 09:51:23;;;;;;;;;20.67;15.33;;;;;15.34;100.00;102303.13;5141366;27;45391;-75
2023/02/17 09:54:02;;;;;;;;;16.00;14.67;;;;;15.43;100.00;102309.31;5127488;27;45230;-75
2023/02/17 09:56:33;;;;;;;;;9.67;9.67;;;;;15.42;100.00;102312.19;5141048;27;45415;-76
2023/02/17 09:59:05;;;;;;;;;16.33;15.00;;;;;15.43;100.00;102306.66;5139808;27;45533;-75
2023/02/17 10:01:32;;;;;;;;;13.67;13.67;;;;;15.51;100.00;102309.31;5141125;27;45341;-75
2023/02/17 10:04:13;;;;;;;;;13.67;13.67;;;;;15.56;100.00;102294.59;5141289;27;45540;-75
2023/02/17 10:07:04;;;;;;;;;18.33;18.00;;;;;15.73;100.00;102301.59;5134648;27;48208;-75
2023/02/17 10:09:34;;;;;;;;;19.00;15.00;;;;;16.06;100.00;102303.38;5141319;27;45287;-75
2023/02/17 10:12:08;;;;;;;;;16.67;15.67;;;;;15.83;100.00;102306.75;5136684;27;45514;-75
2023/02/17 10:14:45;;;;;;;;;13.00;13.00;;;;;15.87;100.00;102318.78;5123691;27;45371;-75
2023/02/17 10:17:22;;;;;;;;;11.33;11.33;;;;;15.87;100.00;102315.31;5131751;27;45404;-75
2023/02/17 10:20:09;;;;;;;;;14.67;14.67;;;;;15.91;100.00;102324.66;5123870;27;45344;-76
2023/02/17 10:22:35;;;;;;;;;11.00;11.00;;;;;15.94;100.00;102312.75;5135588;27;45283;-75
2023/02/17 10:25:12;;;;;;;;;13.00;12.33;;;;;16.03;100.00;102322.50;5125752;27;45360;-78
2023/02/17 10:27:44;;;;;;;;;13.33;12.00;;;;;16.06;100.00;102319.47;5117141;27;47129;-78
2023/02/17 10:30:37;;;;;;;;;11.67;10.67;;;;;16.18;100.00;102324.44;5129178;27;45421;-75
2023/02/17 10:33:17;;;;;;;;;11.00;10.67;;;;;16.23;100.00;102312.22;5139519;27;45352;-75
2023/02/17 10:35:51;;;;;;;;;10.33;10.33;;;;;16.30;100.00;102320.38;5137404;27;45205;-75
2023/02/17 10:38:38;;;;;;;;;11.33;10.67;;;;;16.36;100.00;102306.28;5131859;27;45240;-76
2023/02/17 10:41:07;;;;;;;;;10.00;10.00;;;;;16.42;100.00;102307.41;5116497;27;46061;-75
2023/02/17 10:43:33;;;;;;;;;9.33;9.33;;;;;16.39;100.00;102303.25;5140106;27;45590;-76
2023/02/17 10:46:03;;;;;;;;;9.67;9.67;;;;;16.50;100.00;102310.06;5137697;27;45648;-75
2023/02/17 10:48:34;;;;;;;;;9.67;9.67;;;;;16.56;100.00;102321.94;5137432;27;45349;-75
2023/02/17 10:51:00;;;;;;;;;10.67;10.33;;;;;16.57;100.00;102310.19;5125409;27;45435;-75
2023/02/17 10:53:36;;;;;;;;;12.00;11.00;;;;;16.56;100.00;102318.41;5144177;27;45345;-77
2023/02/17 10:56:34;;;;;;;;;12.00;12.00;;;;;16.49;100.00;102321.81;5122503;27;46186;-76
2023/02/17 10:59:05;;;;;;;;;6.00;6.00;;;;;16.44;100.00;102320.66;5097154;27;47402;-77
2023/02/17 11:01:31;;;;;;;;;10.00;10.00;;;;;16.37;100.00;102315.19;5125672;27;45278;-75
2023/02/17 11:04:05;;;;;;;;;11.67;11.67;;;;;16.41;100.00;102325.34;5144310;27;45280;-74
2023/02/17 11:06:35;;;;;;;;;10.00;9.00;;;;;16.38;100.00;102320.34;5112599;27;46207;-75
2023/02/17 11:09:04;;;;;;;;;10.33;10.00;;;;;16.41;100.00;102322.66;5123228;27;47249;-75
2023/02/17 11:11:33;;;;;;;;;11.33;11.00;;;;;16.39;100.00;102315.81;5143828;27;45304;-74
2023/02/17 11:14:19;;;;;;;;;9.33;9.33;;;;;16.44;100.00;102313.47;5143888;27;45329;-75
2023/02/17 11:16:51;;;;;;;;;12.67;10.00;;;;;16.46;100.00;102308.72;5143958;27;45394;-75